Pagina principale
METAR-TAF:

METAR-TAF

Aeroporti :

Iqaluit, Nunavut, Canada

latitudine: 63-45N, longitudine: 068-33W, altezza: 34 m

Osservazione

Il bollettino è stato emesso 1 ora e 12 minuti fa, alle 17:00 UTC
Vento 8 kt da ovest/nord-ovest
Temperature -3°C
Umidità 58%
Pressione 1014 hPa
Visibilità: 48.3 km
Poco nuvoloso ad un'altezza di 13000 ft
Nuvoloso ad un'altezza di 16000 ft

METAR: CYFB 141700Z 29008KT 30SM FEW130 BKN160 M03/M10 A2995 RMK AC1AC5 AC TR SLP149

Ora: 14:12 (18:12 UTC)

Previsione

Il bollettino è stato emesso 32 minuti fa, alle 17:40 UTC
Previsione valida dal 14 alle 18 UTC al 15 alle 18 UTC
Vento 8 kt da ovest
Visibilità: 10 km
Nuvoloso ad un'altezza di 16000 ft
Evoluzione graduale
dal 15 alle 02 UTC al 15 alle 04 UTC
Vento 8 kt da nord

TAF: CYFB 141740Z 1418/1518 28008KT P6SM BKN160 BECMG 1502/1504 36008KT RMK NXT FCST BY 150000Z

Osservazioni e previsioni meteorologiche di più di 4000 aeroporti (messaggi METAR e TAF).

Le stazioni disponibili sono rappresentate dai dischi gialli e rossi sulla carta.

Puntare il mouse per vedere il nome della stazione.

Clicca sopra per visualizzare le osservazioni e previsioni meteorologiche.

Per cambiare la mappa : fare clic sui pulsanti verdi con una croce nera per ingrandire, il pulsante verde con un trattino per diminuire, o sulla freccia verde per le mappe adiacenti.


METAR-TAF: